createdAt,value
2023-02-18T00:01:27.245Z,7.31
2023-02-18T00:03:55.293Z,7.30
2023-02-18T00:06:28.293Z,7.28
2023-02-18T00:08:58.957Z,7.29
2023-02-18T00:11:27.997Z,7.24
2023-02-18T00:13:57.606Z,7.24
2023-02-18T00:16:26.326Z,7.20
2023-02-18T00:19:02.207Z,7.14
2023-02-18T00:21:30.493Z,7.08
2023-02-18T00:23:58.606Z,7.11
2023-02-18T00:26:26.977Z,7.08
2023-02-18T00:28:55.147Z,7.08
2023-02-18T00:31:25.336Z,7.05
2023-02-18T00:33:53.506Z,7.02
2023-02-18T00:36:22.180Z,7.01
2023-02-18T00:38:52.301Z,7.06
2023-02-18T00:41:21.026Z,7.06
2023-02-18T00:43:48.985Z,7.03
2023-02-18T00:46:17.030Z,7.02
2023-02-18T00:48:45.088Z,7.01
2023-02-18T00:51:13.281Z,6.98
2023-02-18T00:53:41.569Z,6.96
2023-02-18T00:56:10.039Z,6.99
2023-02-18T00:58:38.528Z,7.01
2023-02-18T01:01:07.600Z,7.02
2023-02-18T01:03:39.548Z,7.00
2023-02-18T01:06:08.120Z,7.00
2023-02-18T01:08:36.855Z,6.93
2023-02-18T01:11:05.334Z,6.95
2023-02-18T01:13:33.610Z,6.93
2023-02-18T01:16:01.652Z,6.93
2023-02-18T01:18:30.984Z,6.91
2023-02-18T01:20:59.199Z,6.88
2023-02-18T01:23:27.374Z,6.87
2023-02-18T01:25:56.299Z,6.87
2023-02-18T01:28:25.974Z,6.88
2023-02-18T01:30:54.476Z,6.83
2023-02-18T01:33:22.676Z,6.78
2023-02-18T01:35:50.722Z,6.77
2023-02-18T01:38:18.777Z,6.66
2023-02-18T01:40:51.646Z,6.68
2023-02-18T01:43:20.100Z,6.64
2023-02-18T01:45:52.496Z,6.55
2023-02-18T01:48:52.815Z,6.46
2023-02-18T01:51:38.657Z,6.38
2023-02-18T01:54:15.919Z,6.29
2023-02-18T01:56:49.636Z,6.22
2023-02-18T01:59:22.059Z,6.22
2023-02-18T02:01:50.269Z,6.24
2023-02-18T02:04:18.519Z,6.22
2023-02-18T02:06:46.558Z,6.18
2023-02-18T02:09:16.377Z,6.15
2023-02-18T02:11:54.826Z,6.17
2023-02-18T02:15:01.920Z,6.12
2023-02-18T02:17:42.068Z,6.05
2023-02-18T02:20:13.109Z,6.00
2023-02-18T02:22:46.747Z,5.96
2023-02-18T02:25:20.342Z,5.93
2023-02-18T02:28:00.316Z,5.87
2023-02-18T02:30:40.755Z,5.82
2023-02-18T02:33:46.375Z,5.79
2023-02-18T02:36:29.125Z,5.75
2023-02-18T02:39:17.812Z,5.66
2023-02-18T02:42:08.962Z,5.60
2023-02-18T02:45:14.919Z,5.60
2023-02-18T02:47:49.226Z,5.59
2023-02-18T02:50:18.183Z,5.54
2023-02-18T02:52:59.621Z,5.50
2023-02-18T02:55:27.910Z,5.50
2023-02-18T02:57:56.611Z,5.47
2023-02-18T03:01:02.681Z,5.51
2023-02-18T03:03:58.530Z,5.51
2023-02-18T03:06:30.024Z,5.62
2023-02-18T03:09:11.187Z,5.64
2023-02-18T03:12:23.432Z,5.67
2023-02-18T03:14:54.951Z,5.66
2023-02-18T03:17:57.112Z,5.67
2023-02-18T03:20:38.539Z,5.64
2023-02-18T03:23:08.473Z,5.67
2023-02-18T03:25:37.810Z,5.60
2023-02-18T03:28:26.270Z,5.56
2023-02-18T03:31:17.344Z,5.55
2023-02-18T03:33:54.658Z,5.52
2023-02-18T03:36:22.705Z,5.53
2023-02-18T03:39:00.325Z,5.54
2023-02-18T03:41:29.836Z,5.58
2023-02-18T03:44:08.514Z,5.70
2023-02-18T03:46:37.805Z,5.76
2023-02-18T03:49:06.309Z,5.81
2023-02-18T03:51:34.557Z,5.82
2023-02-18T03:54:02.592Z,5.83
2023-02-18T03:56:30.654Z,5.82
2023-02-18T03:58:58.730Z,5.81
2023-02-18T04:01:27.139Z,5.79
2023-02-18T04:03:55.777Z,5.78
2023-02-18T04:06:23.872Z,5.84
2023-02-18T04:08:51.892Z,5.86
2023-02-18T04:11:19.956Z,5.81
2023-02-18T04:13:47.926Z,5.72
2023-02-18T04:16:15.912Z,5.71
2023-02-18T04:18:43.972Z,5.65
2023-02-18T04:21:12.618Z,5.63
2023-02-18T04:23:40.723Z,5.66
2023-02-18T04:26:09.106Z,5.62
2023-02-18T04:28:37.533Z,5.62
2023-02-18T04:31:05.629Z,5.56
2023-02-18T04:33:33.749Z,5.56
2023-02-18T04:36:01.839Z,5.54
2023-02-18T04:38:30.023Z,5.61
2023-02-18T04:40:58.304Z,5.60
2023-02-18T04:43:26.496Z,5.57
2023-02-18T04:45:54.806Z,5.58
2023-02-18T04:48:22.986Z,5.61
2023-02-18T04:50:50.997Z,5.60
2023-02-18T04:53:19.185Z,5.50
2023-02-18T04:55:51.976Z,5.52
2023-02-18T04:58:20.542Z,5.52
2023-02-18T05:00:48.590Z,5.55
2023-02-18T05:03:16.619Z,5.53
2023-02-18T05:05:45.946Z,5.49
2023-02-18T05:08:13.958Z,5.50
2023-02-18T05:10:41.941Z,5.46
2023-02-18T05:13:09.956Z,5.47
2023-02-18T05:15:38.060Z,5.36
2023-02-18T05:18:06.156Z,5.30
2023-02-18T05:20:34.266Z,5.26
2023-02-18T05:23:02.645Z,5.30
2023-02-18T05:25:30.623Z,5.38
2023-02-18T05:27:58.798Z,5.47
2023-02-18T05:30:26.848Z,5.50
2023-02-18T05:32:55.224Z,5.52
2023-02-18T05:35:23.201Z,5.48
2023-02-18T05:37:51.331Z,5.47
2023-02-18T05:40:19.614Z,5.53
2023-02-18T05:42:47.850Z,5.50
2023-02-18T05:45:16.031Z,5.43
2023-02-18T05:47:44.271Z,5.41
2023-02-18T05:50:12.376Z,5.46
2023-02-18T05:52:40.540Z,5.38
2023-02-18T05:55:08.558Z,5.41
2023-02-18T05:57:36.711Z,5.37
2023-02-18T06:00:06.316Z,5.40
2023-02-18T06:02:34.446Z,5.40
2023-02-18T06:05:02.892Z,5.41
2023-02-18T06:07:31.197Z,5.43
2023-02-18T06:09:59.473Z,5.43
2023-02-18T06:12:29.842Z,5.34
2023-02-18T06:14:58.078Z,5.39
2023-02-18T06:17:26.417Z,5.43
2023-02-18T06:19:54.567Z,5.46
2023-02-18T06:22:22.642Z,5.46
2023-02-18T06:24:50.734Z,5.40
2023-02-18T06:27:18.728Z,5.34
2023-02-18T06:29:46.889Z,5.38
2023-02-18T06:32:15.039Z,5.39
2023-02-18T06:34:43.314Z,5.43
2023-02-18T06:37:11.412Z,5.45
2023-02-18T06:39:39.802Z,5.46
2023-02-18T06:42:07.899Z,5.55
2023-02-18T06:44:37.815Z,5.62
2023-02-18T06:47:06.151Z,5.64
2023-02-18T06:49:34.338Z,5.67
2023-02-18T06:52:02.577Z,5.75
2023-02-18T06:54:30.533Z,5.76
2023-02-18T06:56:58.858Z,5.82
2023-02-18T06:59:27.204Z,5.93
2023-02-18T07:01:55.417Z,5.96
2023-02-18T07:04:23.596Z,6.03
2023-02-18T07:06:51.750Z,6.08
2023-02-18T07:09:19.891Z,6.11
2023-02-18T07:11:48.247Z,6.09
2023-02-18T07:14:16.337Z,6.23
2023-02-18T07:16:44.350Z,6.41
2023-02-18T07:19:14.582Z,6.55
2023-02-18T07:21:43.413Z,6.83
2023-02-18T07:24:11.437Z,7.13
2023-02-18T07:26:39.485Z,7.27
2023-02-18T07:29:07.624Z,7.27
2023-02-18T07:31:35.859Z,7.13
2023-02-18T07:34:04.009Z,6.92
2023-02-18T07:36:32.299Z,6.86
2023-02-18T07:39:00.227Z,6.71
2023-02-18T07:41:28.265Z,6.74
2023-02-18T07:43:56.690Z,6.69
2023-02-18T07:46:24.599Z,6.70
2023-02-18T07:48:52.575Z,6.65
2023-02-18T07:51:20.642Z,6.76
2023-02-18T07:53:49.659Z,6.93
2023-02-18T07:56:18.595Z,7.13
2023-02-18T07:58:46.718Z,7.32
2023-02-18T08:01:15.161Z,7.27
2023-02-18T08:03:43.489Z,7.03
2023-02-18T08:06:21.936Z,7.01
2023-02-18T08:08:52.600Z,7.08
2023-02-18T08:11:20.711Z,7.09
2023-02-18T08:13:49.195Z,7.11
2023-02-18T08:16:18.843Z,7.23
2023-02-18T08:18:48.027Z,7.67
2023-02-18T08:21:17.166Z,7.96
2023-02-18T08:23:45.388Z,8.16
2023-02-18T08:26:13.879Z,8.49
2023-02-18T08:28:45.357Z,8.53
2023-02-18T08:31:27.149Z,8.45
2023-02-18T08:33:56.167Z,8.42
2023-02-18T08:36:24.571Z,8.50
2023-02-18T08:38:52.616Z,8.54
2023-02-18T08:41:20.977Z,8.46
2023-02-18T08:43:49.084Z,8.43
2023-02-18T08:46:25.020Z,8.31
2023-02-18T08:49:01.734Z,7.93
2023-02-18T08:51:30.167Z,7.81
2023-02-18T08:53:58.707Z,7.72
2023-02-18T08:56:26.928Z,7.63
2023-02-18T08:58:54.973Z,7.57
2023-02-18T09:01:23.136Z,7.40
2023-02-18T09:03:51.383Z,7.36
2023-02-18T09:06:19.433Z,7.49
2023-02-18T09:08:47.719Z,7.51
2023-02-18T09:11:16.154Z,7.44
2023-02-18T09:13:44.243Z,7.61
2023-02-18T09:16:18.535Z,7.63
2023-02-18T09:18:47.344Z,7.57
2023-02-18T09:21:16.152Z,7.57
2023-02-18T09:23:44.218Z,7.60
2023-02-18T09:26:18.353Z,7.64
2023-02-18T09:28:46.570Z,7.64
2023-02-18T09:31:16.867Z,7.62
2023-02-18T09:33:53.056Z,7.52
2023-02-18T09:36:21.407Z,7.51
2023-02-18T09:38:49.840Z,7.59
2023-02-18T09:41:39.162Z,7.73
2023-02-18T09:44:21.374Z,7.83
2023-02-18T09:46:57.232Z,7.85
2023-02-18T09:49:27.014Z,7.98
2023-02-18T09:51:55.614Z,7.94
2023-02-18T09:54:23.737Z,7.84
2023-02-18T09:56:51.912Z,7.79
2023-02-18T09:59:21.218Z,7.75
2023-02-18T10:01:52.327Z,7.70
2023-02-18T10:04:30.226Z,7.78
2023-02-18T10:06:58.470Z,7.83
2023-02-18T10:09:44.730Z,7.82
2023-02-18T10:12:15.834Z,7.94
2023-02-18T10:14:44.750Z,7.99
2023-02-18T10:17:14.051Z,7.98
2023-02-18T10:19:42.493Z,7.95
2023-02-18T10:22:13.431Z,7.92
2023-02-18T10:25:00.186Z,7.82
2023-02-18T10:27:34.372Z,7.74
2023-02-18T10:30:16.538Z,7.70
2023-02-18T10:32:46.362Z,7.67
2023-02-18T10:35:39.320Z,7.62
2023-02-18T10:38:38.321Z,7.74
2023-02-18T10:41:10.486Z,7.83
2023-02-18T10:43:56.455Z,8.12
2023-02-18T10:46:57.727Z,8.42
2023-02-18T10:49:32.451Z,8.66
2023-02-18T10:52:01.438Z,8.76
2023-02-18T10:54:49.912Z,8.83
2023-02-18T10:57:23.107Z,9.02
2023-02-18T11:00:02.341Z,9.06
2023-02-18T11:02:32.649Z,9.04
2023-02-18T11:05:02.087Z,9.05
2023-02-18T11:07:32.565Z,8.98
2023-02-18T11:10:33.232Z,8.78
2023-02-18T11:13:03.268Z,8.72
2023-02-18T11:15:31.465Z,8.93
2023-02-18T11:18:23.793Z,9.04
2023-02-18T11:21:02.683Z,9.13
2023-02-18T11:23:32.226Z,8.89
2023-02-18T11:26:07.369Z,8.80
2023-02-18T11:28:45.528Z,8.84
2023-02-18T11:31:24.506Z,8.66
2023-02-18T11:33:58.301Z,8.53
2023-02-18T11:36:31.582Z,8.42
2023-02-18T11:39:07.909Z,8.41
2023-02-18T11:41:39.512Z,8.49
2023-02-18T11:44:35.385Z,8.46
2023-02-18T11:47:18.202Z,8.59
2023-02-18T11:50:00.906Z,8.60
2023-02-18T11:52:36.351Z,8.50
2023-02-18T11:55:08.439Z,8.36
2023-02-18T11:57:38.582Z,8.29
2023-02-18T12:00:20.980Z,8.43
2023-02-18T12:02:49.836Z,8.56
2023-02-18T12:05:27.793Z,8.50
2023-02-18T12:08:00.364Z,8.47
2023-02-18T12:10:40.540Z,8.33
2023-02-18T12:13:17.490Z,8.29
2023-02-18T12:16:03.816Z,8.18
2023-02-18T12:18:36.869Z,8.00
2023-02-18T12:21:15.551Z,7.95
2023-02-18T12:24:17.394Z,7.93
2023-02-18T12:27:05.743Z,7.86
2023-02-18T12:29:49.692Z,7.66
2023-02-18T12:32:48.842Z,7.65
2023-02-18T12:35:22.976Z,7.62
2023-02-18T12:38:06.362Z,7.63
2023-02-18T12:40:42.611Z,7.69
2023-02-18T12:43:35.142Z,7.69
2023-02-18T12:46:21.733Z,7.68
2023-02-18T12:49:08.597Z,7.56
2023-02-18T12:51:42.532Z,7.52
2023-02-18T12:54:31.743Z,7.52
2023-02-18T12:57:16.852Z,7.50
2023-02-18T13:00:14.469Z,7.53
2023-02-18T13:03:09.927Z,7.49
2023-02-18T13:05:46.789Z,7.38
2023-02-18T13:08:41.144Z,7.37
2023-02-18T13:11:46.629Z,7.33
2023-02-18T13:14:24.775Z,7.36
2023-02-18T13:16:54.747Z,7.38
2023-02-18T13:19:25.345Z,7.41
2023-02-18T13:21:56.209Z,7.42
2023-02-18T13:24:30.029Z,7.41
2023-02-18T13:27:20.177Z,7.41
2023-02-18T13:30:07.970Z,7.38
2023-02-18T13:32:38.117Z,7.48
2023-02-18T13:35:21.218Z,7.52
2023-02-18T13:38:19.235Z,7.53
2023-02-18T13:40:48.323Z,7.53
2023-02-18T13:43:29.525Z,7.55
2023-02-18T13:46:09.878Z,7.50
2023-02-18T13:48:52.145Z,7.48
2023-02-18T13:51:29.647Z,7.52
2023-02-18T13:54:13.329Z,7.54
2023-02-18T13:56:57.465Z,7.52
2023-02-18T13:59:36.509Z,7.47
2023-02-18T14:02:29.748Z,7.39
2023-02-18T14:05:14.950Z,7.31
2023-02-18T14:07:53.308Z,7.18
2023-02-18T14:10:21.612Z,7.04
2023-02-18T14:12:58.405Z,6.94
2023-02-18T14:15:26.863Z,6.81
2023-02-18T14:18:12.863Z,6.67
2023-02-18T14:20:40.842Z,6.52
2023-02-18T14:23:18.635Z,6.37
2023-02-18T14:25:53.859Z,6.20
2023-02-18T14:28:34.071Z,6.11
2023-02-18T14:31:06.140Z,6.00
2023-02-18T14:33:35.811Z,5.80
2023-02-18T14:36:18.572Z,5.50
2023-02-18T14:39:11.476Z,5.25
2023-02-18T14:42:04.074Z,4.99
2023-02-18T14:44:38.512Z,4.86
2023-02-18T14:47:06.990Z,4.73
2023-02-18T14:49:52.117Z,4.59
2023-02-18T14:52:31.064Z,4.53
2023-02-18T14:55:00.902Z,4.52
2023-02-18T14:57:51.930Z,4.54
2023-02-18T15:00:22.587Z,4.55
2023-02-18T15:02:53.682Z,4.52
2023-02-18T15:05:29.953Z,4.45
2023-02-18T15:08:09.099Z,4.40
2023-02-18T15:10:43.214Z,4.35
2023-02-18T15:13:22.153Z,4.34
2023-02-18T15:15:52.318Z,4.37
2023-02-18T15:18:52.056Z,4.41
2023-02-18T15:21:31.689Z,4.41
2023-02-18T15:24:06.195Z,4.36
2023-02-18T15:26:37.042Z,4.33
2023-02-18T15:29:06.241Z,4.33
2023-02-18T15:31:39.074Z,4.31
2023-02-18T15:34:31.422Z,4.27
2023-02-18T15:37:00.418Z,4.27
2023-02-18T15:39:28.937Z,4.23
2023-02-18T15:42:02.936Z,4.20
2023-02-18T15:44:33.182Z,4.18
2023-02-18T15:47:07.744Z,4.12
2023-02-18T15:49:37.629Z,4.11
2023-02-18T15:52:06.421Z,4.06
2023-02-18T15:54:35.557Z,4.04
2023-02-18T15:57:05.681Z,4.10
2023-02-18T15:59:35.135Z,4.05
2023-02-18T16:02:03.231Z,4.03
2023-02-18T16:04:33.720Z,4.02
2023-02-18T16:07:04.746Z,4.01
2023-02-18T16:09:33.964Z,3.97
2023-02-18T16:12:05.750Z,3.94
2023-02-18T16:14:46.711Z,3.92
2023-02-18T16:17:25.123Z,3.92
2023-02-18T16:20:04.712Z,3.90
2023-02-18T16:22:37.129Z,3.89
2023-02-18T16:25:13.936Z,3.89
2023-02-18T16:28:04.520Z,3.90
2023-02-18T16:30:33.813Z,3.87
2023-02-18T16:33:02.096Z,3.87
2023-02-18T16:35:43.939Z,3.87
2023-02-18T16:38:21.338Z,3.82
2023-02-18T16:40:49.536Z,3.83
2023-02-18T16:43:22.299Z,3.84
2023-02-18T16:45:55.639Z,3.82
2023-02-18T16:48:30.415Z,3.79
2023-02-18T16:51:17.539Z,3.77
2023-02-18T16:53:45.728Z,3.77
2023-02-18T16:56:21.774Z,3.76
2023-02-18T16:58:51.114Z,3.76
2023-02-18T17:01:30.658Z,3.72
2023-02-18T17:03:59.175Z,3.72
2023-02-18T17:06:27.351Z,3.71
2023-02-18T17:08:56.489Z,3.71
2023-02-18T17:11:34.139Z,3.71
2023-02-18T17:14:05.182Z,3.70
2023-02-18T17:16:33.533Z,3.70
2023-02-18T17:19:02.071Z,3.67
2023-02-18T17:21:30.288Z,3.62
2023-02-18T17:23:58.373Z,3.59
2023-02-18T17:26:27.875Z,3.53
2023-02-18T17:28:57.403Z,3.47
2023-02-18T17:31:27.710Z,3.40
2023-02-18T17:33:57.065Z,3.38
2023-02-18T17:36:25.399Z,3.31
2023-02-18T17:38:53.890Z,3.26
2023-02-18T17:41:21.975Z,3.22
2023-02-18T17:43:50.232Z,3.21
2023-02-18T17:46:18.896Z,3.17
2023-02-18T17:48:47.465Z,3.15
2023-02-18T17:51:24.378Z,3.14
2023-02-18T17:53:52.622Z,3.14
2023-02-18T17:56:20.728Z,3.14
2023-02-18T17:58:49.066Z,3.12
2023-02-18T18:01:18.864Z,3.10
2023-02-18T18:03:47.160Z,3.06
2023-02-18T18:06:17.033Z,3.05
2023-02-18T18:08:45.435Z,3.01
2023-02-18T18:11:15.984Z,3.02
2023-02-18T18:13:44.014Z,2.98
2023-02-18T18:16:13.311Z,2.93
2023-02-18T18:18:41.689Z,2.91
2023-02-18T18:21:21.463Z,2.86
2023-02-18T18:23:50.138Z,2.85
2023-02-18T18:26:18.246Z,2.82
2023-02-18T18:28:46.315Z,2.79
2023-02-18T18:31:15.940Z,2.75
2023-02-18T18:33:51.681Z,2.71
2023-02-18T18:36:20.221Z,2.68
2023-02-18T18:38:48.421Z,2.64
2023-02-18T18:41:18.186Z,2.62
2023-02-18T18:43:46.186Z,2.63
2023-02-18T18:46:14.770Z,2.64
2023-02-18T18:48:42.894Z,2.65
2023-02-18T18:51:21.939Z,2.66
2023-02-18T18:53:49.925Z,2.67
2023-02-18T18:56:18.034Z,2.71
2023-02-18T18:58:46.475Z,2.77
2023-02-18T19:01:19.696Z,2.87
2023-02-18T19:03:48.640Z,2.95
2023-02-18T19:06:17.144Z,3.04
2023-02-18T19:08:47.934Z,3.09
2023-02-18T19:11:16.331Z,3.14
2023-02-18T19:13:46.749Z,3.18
2023-02-18T19:16:22.593Z,3.22
2023-02-18T19:18:51.769Z,3.20
2023-02-18T19:21:20.086Z,3.25
2023-02-18T19:23:48.054Z,3.27
2023-02-18T19:26:16.903Z,3.32
2023-02-18T19:28:45.536Z,3.37
2023-02-18T19:31:14.094Z,3.40
2023-02-18T19:33:45.672Z,3.40
2023-02-18T19:36:14.953Z,3.47
2023-02-18T19:38:43.621Z,3.45
2023-02-18T19:41:13.225Z,3.43
2023-02-18T19:43:42.004Z,3.43
2023-02-18T19:46:14.523Z,3.45
2023-02-18T19:48:50.033Z,3.53
2023-02-18T19:51:19.003Z,3.56
2023-02-18T19:53:47.188Z,3.55
2023-02-18T19:56:15.582Z,3.56
2023-02-18T19:58:44.446Z,3.57
2023-02-18T20:01:14.482Z,3.58
2023-02-18T20:03:42.852Z,3.59
2023-02-18T20:06:17.828Z,3.59
2023-02-18T20:08:46.686Z,3.61
2023-02-18T20:11:15.550Z,3.62
2023-02-18T20:13:43.872Z,3.63
2023-02-18T20:16:12.291Z,3.63
2023-02-18T20:18:40.484Z,3.62
2023-02-18T20:21:11.130Z,3.59
2023-02-18T20:23:39.697Z,3.55
2023-02-18T20:26:09.564Z,3.51
2023-02-18T20:28:37.690Z,3.48
2023-02-18T20:31:12.222Z,3.44
2023-02-18T20:33:42.579Z,3.45
2023-02-18T20:36:11.138Z,3.45
2023-02-18T20:38:40.288Z,3.44
2023-02-18T20:41:11.566Z,3.40
2023-02-18T20:43:40.309Z,3.41
2023-02-18T20:46:10.944Z,3.45
2023-02-18T20:48:39.322Z,3.51
2023-02-18T20:51:10.112Z,3.54
2023-02-18T20:53:39.824Z,3.54
2023-02-18T20:56:07.809Z,3.59
2023-02-18T20:58:36.047Z,3.64
2023-02-18T21:01:07.455Z,3.70
2023-02-18T21:03:35.987Z,3.74
2023-02-18T21:06:08.898Z,3.69
2023-02-18T21:08:40.364Z,3.69
2023-02-18T21:11:21.320Z,3.70
2023-02-18T21:13:50.188Z,3.74
2023-02-18T21:16:20.203Z,3.73
2023-02-18T21:18:48.730Z,3.71
2023-02-18T21:21:16.927Z,3.75
2023-02-18T21:23:44.915Z,3.72
2023-02-18T21:26:15.014Z,3.69
2023-02-18T21:28:43.387Z,3.66
2023-02-18T21:31:30.521Z,3.63
2023-02-18T21:33:59.462Z,3.56
2023-02-18T21:36:27.613Z,3.51
2023-02-18T21:38:58.670Z,3.48
2023-02-18T21:41:26.874Z,3.45
2023-02-18T21:43:55.849Z,3.44
2023-02-18T21:46:28.588Z,3.43
2023-02-18T21:49:03.214Z,3.39
2023-02-18T21:52:08.357Z,3.32
2023-02-18T21:54:39.375Z,3.21
2023-02-18T21:57:10.048Z,3.16
2023-02-18T21:59:38.569Z,3.13
2023-02-18T22:02:07.350Z,3.14
2023-02-18T22:04:36.498Z,3.13
2023-02-18T22:07:05.442Z,3.12
2023-02-18T22:09:35.805Z,3.10
2023-02-18T22:12:04.308Z,3.08
2023-02-18T22:14:32.591Z,3.05
2023-02-18T22:17:00.678Z,3.04
2023-02-18T22:19:28.762Z,3.03
2023-02-18T22:21:56.967Z,3.03
2023-02-18T22:24:24.955Z,3.02
2023-02-18T22:26:53.788Z,3.01
2023-02-18T22:29:21.957Z,3.01
2023-02-18T22:31:50.365Z,2.98
2023-02-18T22:34:18.780Z,2.98
2023-02-18T22:36:46.955Z,2.96
2023-02-18T22:39:15.450Z,2.92
2023-02-18T22:41:44.572Z,2.87
2023-02-18T22:44:14.008Z,2.81
2023-02-18T22:46:42.462Z,2.78
2023-02-18T22:49:11.165Z,2.76
2023-02-18T22:51:40.455Z,2.75
2023-02-18T22:54:14.672Z,2.75
2023-02-18T22:56:43.841Z,2.77
2023-02-18T22:59:12.586Z,2.77
2023-02-18T23:01:41.985Z,2.76
2023-02-18T23:04:14.229Z,2.75
2023-02-18T23:06:44.399Z,2.74
2023-02-18T23:09:17.593Z,2.72
2023-02-18T23:11:45.842Z,2.73
2023-02-18T23:14:19.771Z,2.73
2023-02-18T23:17:12.969Z,2.72
2023-02-18T23:19:45.776Z,2.71
2023-02-18T23:22:16.171Z,2.70
2023-02-18T23:24:44.861Z,2.72
2023-02-18T23:27:14.271Z,2.76
2023-02-18T23:29:42.346Z,2.77
2023-02-18T23:32:10.437Z,2.78
2023-02-18T23:34:39.247Z,2.80
2023-02-18T23:37:07.860Z,2.81
2023-02-18T23:39:36.028Z,2.79
2023-02-18T23:42:04.165Z,2.81
2023-02-18T23:44:32.880Z,2.82
2023-02-18T23:47:01.138Z,2.83
2023-02-18T23:49:29.225Z,2.86
2023-02-18T23:51:58.484Z,2.89
2023-02-18T23:54:27.110Z,2.90
2023-02-18T23:56:55.376Z,2.91
2023-02-18T23:59:23.489Z,2.92
